Latest Coastal Weather Observations for Groote Eylandt Airport

IDD60701

Issued at 7:01 am CST Thursday 27 April 2017 (issued every 10 minutes, with the page automatically refreshed every 10 minutes)

About coastal observations | Map of coastal stations | Coastal observations for NT | Marine services | Other Formats
Station Details ID: 014518 Name: GROOTE EYLANDT AIRPORT Lat: -13.97 Lon: 136.46 Height: 13.7 m
Data from the previous 72 hours. | See also: Recent months at Groote Eylandt Airport
Date/Time
CST
Temp
°C
Wind Pressure Rain since
9am
mm
Weather Cloud Vis
km
Sea
Height
m
Swell
Dir  Spd
kts
Gust
kts
hPa Trend Height
m
Period
s
Dir
27/07:00am 23.1 CALM 0 0 1012.3 - 23.2 - Partly cloudy 10 - - - -
27/06:30am 22.6 CALM 0 0 1011.6 - 23.2 - Cloudy 10 - - - -
27/06:00am 22.6 ESE 1 3 1011.0 - 23.2 - Mostly cloudy 10 - - - -
27/05:30am 22.9 CALM 0 0 1010.5 - 23.2 - Partly cloudy 10 - - - -
27/05:00am 22.9 CALM 0 0 1010.0 - 23.2 - - 10 - - - -
27/04:30am 23.1 CALM 0 0 1009.8 - 23.2 - - 10 - - - -
27/04:00am 23.3 ESE 3 4 1009.7 - 23.0 - - 10 - - - -
27/03:30am 23.9 ESE 4 5 1009.7 - 23.0 - - 10 - - - -
27/03:00am 23.3 SE 3 4 1009.9 - 23.0 - - 10 - - - -
27/02:30am 23.2 CALM 0 0 1010.1 - 23.0 - - 10 - - - -
27/02:00am 23.3 SE 4 5 1010.5 - 23.0 - - 10 - - - -
27/01:30am 23.6 NE 2 4 1011.0 - 23.0 - - 10 - - - -
27/01:00am 23.7 CALM 0 0 1011.5 - 23.0 - - 10 - - - -
27/12:30am 23.7 CALM 0 0 1011.9 - 23.0 - - 10 - - - -
27/12:00am 23.8 CALM 0 0 1012.3 - 23.0 - Cloudy 10 - - - -
 
Date/Time
CST
Temp
°C
Wind Pressure Rain since
9am
mm
Weather Cloud Vis
km
Sea
Height
m
Swell
Dir  Spd
kts
Gust
kts
hPa Trend Height
m
Period
s
Dir
26/11:30pm 23.8 CALM 0 0 1012.4 - 23.0 - - 10 - - - -
26/11:00pm 23.8 CALM 0 0 1012.7 - 23.0 - - 10 - - - -
26/10:30pm 24.1 NE 2 3 1012.7 - 23.0 - - 10 - - - -
26/10:00pm 24.2 ESE 3 4 1012.6 - 23.0 - - 10 - - - -
26/09:30pm 24.1 SE 4 5 1012.4 - 23.0 - - 10 - - - -
26/09:00pm 24.1 SE 3 5 1012.3 - 23.0 - Cloudy 10 - - - -
26/08:30pm 24.2 E 3 4 1012.3 - 23.0 - Partly cloudy 10 - - - -
26/08:00pm 24.0 SSE 3 4 1012.7 - 23.0 - Cloudy 10 - - - -
26/07:30pm 23.9 ENE 1 3 1012.7 - 23.0 - Cloudy 10 - - - -
26/07:00pm 23.9 ENE 1 3 1012.8 - 23.0 - Partly cloudy 10 - - - -
26/06:30pm 23.9 ENE 3 4 1012.4 - 23.0 - Partly cloudy 10 - - - -
26/06:00pm 23.9 CALM 0 0 1012.1 - 23.0 Rain Mostly cloudy 10 - - - -
26/05:30pm 24.0 ENE 3 4 1011.7 - 23.0 - Partly cloudy 10 - - - -
26/05:00pm 24.0 ENE 2 4 1011.6 - 22.6 - Partly cloudy 10 - - - -
26/04:30pm 24.1 ENE 3 4 1011.2 - 22.6 - - 10 - - - -
26/04:00pm 24.0 ENE 5 6 1011.0 - 22.6 - Cloudy 10 - - - -
26/03:30pm 24.0 ENE 4 5 1010.8 - 22.6 - Partly cloudy 10 - - - -
26/03:00pm 23.9 ENE 5 6 1010.4 - 22.6 Showers Cloudy 10 - - - -
26/02:30pm 24.0 NE 6 8 1010.4 - 22.6 - Partly cloudy 10 - - - -
26/02:00pm 24.3 ENE 5 7 1010.6 - 22.6 - - 10 - - - -
26/01:30pm 24.2 ENE 7 9 1010.8 - 22.2 - Partly cloudy 10 - - - -
26/01:00pm 24.2 ENE 9 13 1011.3 - 22.0 - Cloudy 10 - - - -
26/12:30pm 24.1 ENE 8 11 1011.3 - 21.2 - Cloudy 10 - - - -
26/12:00pm 24.1 ENE 6 10 1011.4 - 20.2 Rain Cloudy 10 - - - -
26/11:45am 24.2 ENE 8 11 1011.8 - 18.8 - Partly cloudy 5 - - - -
26/11:36am 24.2 ENE 9 12 1012.1 - 17.6 - Partly cloudy 7 - - - -
26/11:33am 24.3 ENE 9 12 1012.2 - 17.4 - Partly cloudy 7 - - - -
26/11:30am 24.3 ENE 8 12 1012.3 - 17.0 - Partly cloudy 6 - - - -
26/11:16am 24.4 ENE 9 13 1012.7 - 15.6 - Partly cloudy 5 - - - -
26/11:14am 24.5 ENE 9 13 1012.8 - 15.0 - Partly cloudy 4 - - - -
26/11:01am 24.4 ENE 13 18 1012.9 - 12.8 - Partly cloudy 0.8 - - - -
26/11:00am 24.5 ENE 13 18 1013.0 - 12.2 - Partly cloudy 0.9 - - - -
26/10:51am 24.9 ENE 11 17 1013.2 - 3.0 - Partly cloudy 5 - - - -
26/10:30am 25.3 NE 8 17 1013.2 - 1.0 - Partly cloudy 10 - - - -
26/10:00am 26.5 NE 4 7 1012.6 - 0.0 - Partly cloudy 10 - - - -
26/09:30am 26.6 NE 5 8 1012.3 - 0.0 - Partly cloudy 10 - - - -
26/09:00am 26.1 CALM 0 0 1011.9 - 2.0 - Cloudy 10 - - - -
26/08:30am 26.0 NE 3 5 1011.6 - 2.0 - Partly cloudy 10 - - - -
26/08:00am 25.8 CALM 0 0 1011.5 - 2.0 - - 10 - - - -
26/07:30am 25.7 CALM 0 0 1011.2 - 2.0 - - 10 - - - -
26/07:00am 25.4 CALM 0 0 1010.8 - 2.0 - Partly cloudy 10 - - - -
26/06:30am 25.1 ESE 4 5 1010.3 - 2.0 - - 10 - - - -
26/06:00am 24.7 SSE 3 4 1009.9 - 2.0 - Cloudy 10 - - - -
26/05:30am 24.8 ESE 1 4 1010.2 - 2.0 - Partly cloudy 10 - - - -
26/05:00am 24.7 ESE 3 5 1010.1 - 2.0 - Cloudy 10 - - - -
26/04:30am 24.8 ESE 3 5 1010.0 - 2.0 - Partly cloudy 10 - - - -
26/04:00am 24.7 E 4 5 1009.8 - 2.0 - - 10 - - - -
26/03:30am 24.8 SE 3 4 1009.8 - 2.0 - Partly cloudy 10 - - - -
26/03:00am 24.7 SSE 3 4 1009.8 - 2.0 - - 10 - - - -
26/02:30am 24.9 SE 3 5 1010.2 - 2.0 - - 10 - - - -
26/02:00am 25.0 SSE 2 4 1010.5 - 2.0 - - 10 - - - -
26/01:30am 25.4 CALM 0 0 1010.8 - 2.0 - - 10 - - - -
26/01:00am 25.4 SSE 3 4 1011.0 - 2.0 - - 10 - - - -
26/12:30am 25.3 SE 3 3 1011.2 - 2.0 - - 10 - - - -
26/12:00am 25.7 ESE 4 5 1011.2 - 2.0 - - 10 - - - -
 
Date/Time
CST
Temp
°C
Wind Pressure Rain since
9am
mm
Weather Cloud Vis
km
Sea
Height
m
Swell
Dir  Spd
kts
Gust
kts
hPa Trend Height
m
Period
s
Dir
25/11:30pm 26.0 ESE 4 4 1011.3 - 2.0 - - 10 - - - -
25/11:00pm 26.1 SE 4 5 1011.4 - 2.0 - - 10 - - - -
25/10:30pm 26.3 ESE 5 6 1011.5 - 2.0 - - 10 - - - -
25/10:00pm 26.3 ESE 5 6 1011.7 - 2.0 - - 10 - - - -
25/09:30pm 26.2 ESE 4 6 1011.9 - 2.0 - - 10 - - - -
25/09:00pm 26.2 ESE 4 6 1012.0 - 2.0 - - 10 - - - -
25/08:30pm 25.9 ESE 3 5 1011.8 - 2.0 - - 10 - - - -
25/08:00pm 26.0 ESE 2 4 1011.6 - 2.0 - - 10 - - - -
25/07:30pm 26.4 SE 2 4 1011.3 - 2.0 - - 10 - - - -
25/07:00pm 26.6 SE 3 4 1011.0 - 2.0 - - 10 - - - -
25/06:30pm 26.8 SE 3 4 1010.7 - 2.0 - - 10 - - - -
25/06:00pm 27.6 ESE 4 7 1010.5 - 2.0 - Mostly clear 10 - - - -
25/05:30pm 28.0 ESE 7 12 1010.1 - 2.0 - Partly cloudy 10 - - - -
25/05:00pm 28.9 ESE 8 13 1009.9 - 2.0 - - 10 - - - -
25/04:30pm 28.2 ESE 4 7 1009.6 - 2.0 - - 10 - - - -
25/04:00pm 27.3 SSE 4 6 1009.6 - 2.0 - Partly cloudy 10 - - - -
25/03:30pm 27.0 SE 7 11 1009.7 - 1.8 - Partly cloudy 10 - - - -
25/03:00pm 27.3 SE 6 9 1009.5 - 1.2 Showers Mostly cloudy 6 - - - -
25/02:30pm 30.8 E 11 15 1009.6 - 0.0 - - 10 - - - -
25/02:00pm 29.8 N 6 9 1009.9 - 0.0 - Partly cloudy 10 - - - -
25/01:30pm 31.4 E 11 14 1010.2 - 0.0 - - 10 - - - -
25/01:00pm 29.7 ESE 5 9 1010.8 - 0.0 - Partly cloudy 10 - - - -
25/12:30pm 31.6 E 8 11 1010.9 - 0.0 - Partly cloudy 10 - - - -
25/12:00pm 31.5 E 11 18 1011.3 - 0.0 - Partly cloudy 10 - - - -
25/11:30am 32.6 E 10 16 1011.8 - 0.0 - Partly cloudy 10 - - - -
25/11:00am 31.4 E 12 16 1012.3 - 0.0 - Partly cloudy 10 - - - -
25/10:30am 31.6 E 13 18 1012.6 - 0.0 - Partly cloudy 10 - - - -
25/10:00am 31.1 E 11 15 1012.7 - 0.0 - Partly cloudy 10 - - - -
25/09:30am 30.8 E 10 14 1012.6 - 0.0 - Partly cloudy 10 - - - -
25/09:00am 30.0 ESE 5 9 1012.3 - 0.0 - - 10 - - - -
25/08:30am 28.5 ESE 5 8 1012.1 - 0.0 - - 10 - - - -
25/08:00am 27.0 E 1 4 1011.8 - 0.0 - - 10 - - - -
25/07:30am 25.0 E 2 3 1011.4 - 0.0 - - 10 - - - -
25/07:00am 22.6 CALM 0 0 1010.8 - 0.0 - - 10 - - - -
25/06:30am 22.0 CALM 0 2 1010.4 - 0.0 - - 10 - - - -
25/06:00am 22.1 E 1 3 1010.0 - 0.0 - - 10 - - - -
25/05:30am 22.1 CALM 0 0 1009.8 - 0.0 - - 10 - - - -
25/05:00am 22.4 CALM 0 0 1009.6 - 0.0 - - 10 - - - -
25/04:30am 22.5 CALM 0 0 1009.5 - 0.0 - - 10 - - - -
25/04:00am 22.7 CALM 0 0 1009.5 - 0.0 - - 10 - - - -
25/03:30am 23.0 CALM 0 0 1009.6 - 0.0 - - 10 - - - -
25/03:00am 23.1 CALM 0 0 1009.8 - 0.0 - - 10 - - - -
25/02:30am 23.5 CALM 0 0 1010.0 - 0.0 - - 10 - - - -
25/02:00am 23.7 CALM 0 0 1010.4 - 0.0 - - 10 - - - -
25/01:30am 23.8 CALM 0 0 1010.7 - 0.0 - - 10 - - - -
25/01:00am 23.9 CALM 0 0 1011.2 - 0.0 - - 10 - - - -
25/12:30am 24.1 E 4 4 1011.6 - 0.0 - - 10 - - - -
25/12:00am 24.4 CALM 0 0 1011.9 - 0.0 - - 10 - - - -
 
Date/Time
CST
Temp
°C
Wind Pressure Rain since
9am
mm
Weather Cloud Vis
km
Sea
Height
m
Swell
Dir  Spd
kts
Gust
kts
hPa Trend Height
m
Period
s
Dir
24/11:30pm 24.4 CALM 0 0 1012.3 - 0.0 - - 10 - - - -
24/11:00pm 24.6 CALM 0 0 1012.6 - 0.0 - - 10 - - - -
24/10:30pm 25.0 CALM 0 0 1012.7 - 0.0 - - 10 - - - -
24/10:00pm 25.0 CALM 0 0 1012.7 - 0.0 - - 10 - - - -
24/09:30pm 25.3 CALM 0 0 1012.7 - 0.0 - - 10 - - - -
24/09:00pm 25.8 CALM 0 0 1012.8 - 0.0 - - 10 - - - -
24/08:30pm 26.3 CALM 0 0 1012.4 - 0.0 - - 10 - - - -
24/08:00pm 26.9 E 3 4 1012.0 - 0.0 - - 10 - - - -
24/07:30pm 27.4 E 3 4 1011.6 - 0.0 - - 10 - - - -
24/07:00pm 27.8 ESE 4 5 1010.9 - 0.0 - - 10 - - - -
24/06:30pm 28.6 E 6 10 1010.8 - 0.0 - Cloudy 10 - - - -
24/06:00pm 29.0 E 9 12 1010.7 - 0.0 - Mostly cloudy 10 - - - -
24/05:30pm 29.3 E 8 12 1010.4 - 0.0 - Cloudy 10 - - - -
24/05:00pm 29.5 E 11 16 1009.9 - 0.0 - Partly cloudy 10 - - - -
24/04:30pm 30.5 E 11 14 1009.5 - 0.0 - Partly cloudy 10 - - - -
24/04:00pm 30.4 E 10 14 1009.4 - 0.0 - Partly cloudy 10 - - - -
24/03:30pm 29.9 ESE 8 13 1009.7 - 0.0 - Partly cloudy 10 - - - -
24/03:00pm 30.2 E 12 20 1009.9 - 0.0 - Partly cloudy 10 - - - -
24/02:30pm 31.2 E 10 15 1010.0 - 0.0 - - 10 - - - -
24/02:00pm 31.8 E 11 15 1010.2 - 0.0 - - 10 - - - -
24/01:30pm 32.4 E 12 17 1010.6 - 0.0 - Partly cloudy 10 - - - -
24/01:00pm 32.0 ESE 9 15 1010.9 - 0.0 - Partly cloudy 10 - - - -
24/12:30pm 32.4 E 12 19 1011.2 - 0.0 - - 10 - - - -
24/12:00pm 31.1 ESE 10 14 1011.8 - 0.0 - Cloudy 10 - - - -
24/11:30am 32.3 ESE 10 16 1012.1 - 0.0 - Partly cloudy 10 - - - -
24/11:00am 32.2 E 11 18 1012.4 - 0.0 - Partly cloudy 10 - - - -
24/10:30am 31.6 E 11 16 1012.4 - 0.0 - Partly cloudy 10 - - - -
24/10:00am 31.1 E 10 17 1012.4 - 0.0 - - 10 - - - -
24/09:30am 30.0 E 10 15 1012.3 - 0.0 - - 10 - - - -
24/09:00am 28.8 ESE 5 9 1012.1 - 0.0 - - 10 - - - -
24/08:30am 26.0 CALM 0 3 1011.9 - 0.0 - - 10 - - - -
24/08:00am 24.1 CALM 0 0 1011.8 - 0.0 - - 10 - - - -
24/07:30am 22.6 CALM 0 0 1011.4 - 0.0 - - 10 - - - -

Other Formats:

Comma delimited format used in spreadsheet applications
http://www.bom.gov.au/fwo/IDD60701/IDD60701.94153.axf

JavaScript Object Notation format (JSON) in row-major order
http://www.bom.gov.au/fwo/IDD60701/IDD60701.94153.json